createdAt,value
2023-05-24T00:00:13.158Z,50.67
2023-05-24T00:02:43.873Z,48.25
2023-05-24T00:05:10.956Z,54.40
2023-05-24T00:07:38.428Z,50.72
2023-05-24T00:10:06.145Z,61.30
2023-05-24T00:12:33.202Z,46.92
2023-05-24T00:14:59.752Z,55.17
2023-05-24T00:17:26.514Z,49.00
2023-05-24T00:19:53.325Z,52.17
2023-05-24T00:22:21.043Z,50.05
2023-05-24T00:24:48.253Z,41.33
2023-05-24T00:27:15.529Z,47.25
2023-05-24T00:29:42.070Z,48.08
2023-05-24T00:32:08.787Z,45.95
2023-05-24T00:34:35.720Z,44.60
2023-05-24T00:37:02.214Z,52.10
2023-05-24T00:39:28.807Z,48.90
2023-05-24T00:41:55.261Z,40.08
2023-05-24T00:44:21.726Z,57.42
2023-05-24T00:46:48.506Z,48.92
2023-05-24T00:49:15.007Z,47.35
2023-05-24T00:51:41.559Z,40.15
2023-05-24T00:54:08.209Z,41.28
2023-05-24T00:56:34.913Z,47.95
2023-05-24T00:59:01.951Z,60.33
2023-05-24T01:01:31.021Z,46.58
2023-05-24T01:03:59.466Z,49.73
2023-05-24T01:06:28.043Z,48.05
2023-05-24T01:09:07.515Z,52.47
2023-05-24T01:11:45.982Z,53.83
2023-05-24T01:14:34.016Z,44.75
2023-05-24T01:17:15.080Z,51.45
2023-05-24T01:20:06.904Z,52.63
2023-05-24T01:22:39.780Z,41.75
2023-05-24T01:25:34.313Z,41.10
2023-05-24T01:28:01.629Z,53.10
2023-05-24T01:30:28.699Z,39.60
2023-05-24T01:32:55.411Z,51.97
2023-05-24T01:35:21.960Z,56.55
2023-05-24T01:37:48.467Z,55.33
2023-05-24T01:40:15.876Z,54.33
2023-05-24T01:42:56.597Z,41.88
2023-05-24T01:45:32.331Z,52.60
2023-05-24T01:48:27.720Z,59.08
2023-05-24T01:50:56.971Z,47.47
2023-05-24T01:53:26.434Z,40.03
2023-05-24T01:55:56.524Z,49.47
2023-05-24T01:58:25.485Z,50.45
2023-05-24T02:00:53.194Z,54.40
2023-05-24T02:03:20.243Z,45.08
2023-05-24T02:05:47.102Z,51.67
2023-05-24T02:08:13.963Z,45.83
2023-05-24T02:10:40.929Z,34.63
2023-05-24T02:13:08.598Z,56.03
2023-05-24T02:15:35.624Z,44.53
2023-05-24T02:18:02.438Z,53.30
2023-05-24T02:20:31.986Z,47.92
2023-05-24T02:22:59.066Z,36.95
2023-05-24T02:25:26.004Z,43.00
2023-05-24T02:27:52.543Z,53.92
2023-05-24T02:30:19.231Z,57.90
2023-05-24T02:32:46.648Z,54.60
2023-05-24T02:35:13.319Z,40.85
2023-05-24T02:37:40.591Z,47.38
2023-05-24T02:40:07.911Z,40.97
2023-05-24T02:42:34.664Z,49.53
2023-05-24T02:45:01.219Z,35.85
2023-05-24T02:47:27.861Z,55.08
2023-05-24T02:49:54.953Z,41.78
2023-05-24T02:52:23.038Z,40.67
2023-05-24T02:54:49.960Z,42.25
2023-05-24T02:57:16.631Z,58.95
2023-05-24T02:59:43.568Z,55.72
2023-05-24T03:02:10.128Z,47.67
2023-05-24T03:04:36.561Z,43.25
2023-05-24T03:07:03.306Z,41.08
2023-05-24T03:09:30.021Z,54.17
2023-05-24T03:11:56.503Z,40.95
2023-05-24T03:14:24.846Z,54.88
2023-05-24T03:16:51.596Z,42.25
2023-05-24T03:19:18.223Z,51.25
2023-05-24T03:21:44.771Z,44.83
2023-05-24T03:24:13.398Z,50.58
2023-05-24T03:26:40.843Z,51.33
2023-05-24T03:29:07.704Z,56.70
2023-05-24T03:31:34.335Z,57.97
2023-05-24T03:34:01.411Z,41.95
2023-05-24T03:36:29.113Z,47.38
2023-05-24T03:38:58.314Z,48.53
2023-05-24T03:41:25.217Z,47.97
2023-05-24T03:43:52.466Z,43.83
2023-05-24T03:46:19.011Z,52.67
2023-05-24T03:48:45.580Z,39.13
2023-05-24T03:51:12.056Z,50.42
2023-05-24T03:53:38.544Z,51.70
2023-05-24T03:56:05.510Z,46.17
2023-05-24T03:58:32.060Z,50.92
2023-05-24T04:00:58.695Z,36.45
2023-05-24T04:03:26.063Z,39.40
2023-05-24T04:05:54.020Z,37.35
2023-05-24T04:08:20.716Z,50.60
2023-05-24T04:10:47.200Z,55.05
2023-05-24T04:13:13.879Z,36.33
2023-05-24T04:15:40.732Z,47.28
2023-05-24T04:18:07.343Z,51.50
2023-05-24T04:20:34.001Z,42.90
2023-05-24T04:23:00.597Z,44.72
2023-05-24T04:25:27.626Z,42.58
2023-05-24T04:27:54.308Z,46.47
2023-05-24T04:30:21.474Z,59.30
2023-05-24T04:32:48.653Z,53.50
2023-05-24T04:35:16.724Z,48.60
2023-05-24T04:37:44.557Z,46.58
2023-05-24T04:40:11.725Z,49.83
2023-05-24T04:42:38.421Z,46.60
2023-05-24T04:45:05.570Z,65.45
2023-05-24T04:47:32.508Z,57.60
2023-05-24T04:49:59.064Z,61.60
2023-05-24T04:52:25.763Z,48.05
2023-05-24T04:54:52.876Z,64.13
2023-05-24T04:57:19.396Z,59.45
2023-05-24T04:59:45.940Z,64.57
2023-05-24T05:02:12.773Z,65.53
2023-05-24T05:04:39.408Z,67.22
2023-05-24T05:07:07.334Z,69.30
2023-05-24T05:09:33.874Z,69.00
2023-05-24T05:12:00.389Z,71.22
2023-05-24T05:14:27.001Z,58.72
2023-05-24T05:16:53.507Z,67.15
2023-05-24T05:19:20.196Z,62.33
2023-05-24T05:21:46.645Z,63.88
2023-05-24T05:24:20.254Z,61.85
2023-05-24T05:26:46.736Z,63.40
2023-05-24T05:29:13.279Z,74.25
2023-05-24T05:31:39.779Z,70.13
2023-05-24T05:34:09.807Z,65.30
2023-05-24T05:36:41.138Z,55.45
2023-05-24T05:39:11.473Z,72.53
2023-05-24T05:41:46.380Z,80.70
2023-05-24T05:44:13.842Z,69.18
2023-05-24T05:46:41.490Z,68.78
2023-05-24T05:49:08.205Z,67.72
2023-05-24T05:51:34.712Z,62.33
2023-05-24T05:54:01.355Z,65.88
2023-05-24T05:56:27.883Z,60.35
2023-05-24T05:58:56.339Z,64.30
2023-05-24T06:01:24.160Z,70.07
2023-05-24T06:03:51.561Z,63.10
2023-05-24T06:06:18.336Z,60.00
2023-05-24T06:08:44.840Z,74.13
2023-05-24T06:11:11.771Z,61.47
2023-05-24T06:13:38.305Z,74.38
2023-05-24T06:16:04.947Z,60.55
2023-05-24T06:18:32.617Z,63.40
2023-05-24T06:20:59.148Z,73.90
2023-05-24T06:23:25.679Z,63.03
2023-05-24T06:25:52.281Z,69.90
2023-05-24T06:28:18.905Z,71.57
2023-05-24T06:30:45.752Z,64.70
2023-05-24T06:33:12.452Z,59.42
2023-05-24T06:35:38.995Z,68.78
2023-05-24T06:38:05.763Z,64.45
2023-05-24T06:40:32.369Z,79.60
2023-05-24T06:42:58.916Z,71.05
2023-05-24T06:45:25.488Z,74.32
2023-05-24T06:47:52.228Z,76.70
2023-05-24T06:50:18.945Z,67.22
2023-05-24T06:52:45.608Z,66.13
2023-05-24T06:55:12.061Z,59.95
2023-05-24T06:57:38.549Z,60.45
2023-05-24T07:00:09.930Z,59.20
2023-05-24T07:02:36.473Z,75.82
2023-05-24T07:05:03.039Z,58.55
2023-05-24T07:07:29.611Z,56.80
2023-05-24T07:09:56.494Z,59.85
2023-05-24T07:12:23.595Z,51.05
2023-05-24T07:14:50.069Z,62.75
2023-05-24T07:17:16.740Z,58.45
2023-05-24T07:19:43.355Z,57.25
2023-05-24T07:22:09.874Z,62.30
2023-05-24T07:24:36.668Z,53.35
2023-05-24T07:27:03.342Z,67.47
2023-05-24T07:29:29.803Z,72.05
2023-05-24T07:31:56.847Z,69.93
2023-05-24T07:34:27.645Z,57.97
2023-05-24T07:36:54.180Z,62.38
2023-05-24T07:39:20.752Z,60.08
2023-05-24T07:41:48.287Z,70.63
2023-05-24T07:44:15.102Z,62.83
2023-05-24T07:46:41.630Z,58.20
2023-05-24T07:49:08.091Z,60.45
2023-05-24T07:51:34.559Z,58.78
2023-05-24T07:54:01.071Z,66.85
2023-05-24T07:56:27.575Z,49.13
2023-05-24T07:58:59.293Z,53.35
2023-05-24T08:01:25.954Z,54.15
2023-05-24T08:03:52.936Z,62.05
2023-05-24T08:06:19.533Z,69.43
2023-05-24T08:08:46.362Z,62.17
2023-05-24T08:11:14.145Z,52.08
2023-05-24T08:13:40.604Z,59.38
2023-05-24T08:16:07.114Z,68.03
2023-05-24T08:18:33.729Z,65.15
2023-05-24T08:21:00.184Z,74.57
2023-05-24T08:23:27.064Z,53.35
2023-05-24T08:25:54.281Z,72.65
2023-05-24T08:28:21.146Z,56.53
2023-05-24T08:30:48.095Z,65.55
2023-05-24T08:33:15.007Z,58.72
2023-05-24T08:35:42.299Z,58.50
2023-05-24T08:38:09.498Z,70.32
2023-05-24T08:40:36.172Z,54.13
2023-05-24T08:43:02.817Z,66.57
2023-05-24T08:45:31.917Z,63.70
2023-05-24T08:47:59.561Z,76.07
2023-05-24T08:50:28.604Z,65.20
2023-05-24T08:52:57.551Z,66.43
2023-05-24T08:55:25.099Z,53.67
2023-05-24T08:57:52.635Z,57.28
2023-05-24T09:00:19.704Z,56.85
2023-05-24T09:02:46.517Z,66.63
2023-05-24T09:05:16.781Z,49.33
2023-05-24T09:07:45.575Z,62.60
2023-05-24T09:10:12.701Z,61.22
2023-05-24T09:12:42.279Z,61.05
2023-05-24T09:15:09.633Z,50.03
2023-05-24T09:17:37.359Z,54.67
2023-05-24T09:20:07.484Z,54.72
2023-05-24T09:22:36.857Z,49.28
2023-05-24T09:25:06.427Z,43.25
2023-05-24T09:27:35.033Z,47.45
2023-05-24T09:30:04.981Z,49.10
2023-05-24T09:32:31.802Z,48.17
2023-05-24T09:34:59.683Z,45.67
2023-05-24T09:37:32.182Z,42.88
2023-05-24T09:39:59.579Z,41.67
2023-05-24T09:42:28.791Z,47.90
2023-05-24T09:45:10.561Z,43.67
2023-05-24T09:47:41.611Z,31.00
2023-05-24T09:50:17.732Z,36.55
2023-05-24T09:52:45.373Z,44.33
2023-05-24T09:55:17.010Z,39.47
2023-05-24T09:57:52.407Z,37.85
2023-05-24T10:00:27.904Z,41.10
2023-05-24T10:03:07.101Z,43.92
2023-05-24T10:05:34.931Z,47.23
2023-05-24T10:08:02.153Z,38.65
2023-05-24T10:10:30.299Z,30.60
2023-05-24T10:12:57.929Z,25.95
2023-05-24T10:15:25.493Z,33.13
2023-05-24T10:17:52.771Z,29.88
2023-05-24T10:20:19.486Z,30.85
2023-05-24T10:22:47.879Z,28.75
2023-05-24T10:25:18.555Z,27.65
2023-05-24T10:27:46.719Z,29.27
2023-05-24T10:30:16.109Z,26.55
2023-05-24T10:32:45.419Z,26.30
2023-05-24T10:35:14.834Z,23.93
2023-05-24T10:37:42.713Z,34.85
2023-05-24T10:40:20.906Z,29.35
2023-05-24T10:42:48.175Z,26.73
2023-05-24T10:45:53.451Z,25.05
2023-05-24T10:48:29.281Z,21.55
2023-05-24T10:50:56.300Z,38.95
2023-05-24T10:53:25.945Z,54.35
2023-05-24T10:55:59.663Z,39.15
2023-05-24T10:58:48.691Z,35.70
2023-05-24T11:01:27.091Z,48.88
2023-05-24T11:03:54.256Z,39.97
2023-05-24T11:06:48.037Z,43.88
2023-05-24T11:09:15.959Z,38.35
2023-05-24T11:11:46.317Z,39.60
2023-05-24T11:14:13.891Z,43.25
2023-05-24T11:16:41.189Z,35.45
2023-05-24T11:19:23.094Z,30.38
2023-05-24T11:21:51.681Z,35.45
2023-05-24T11:24:19.273Z,37.83
2023-05-24T11:26:46.759Z,34.30
2023-05-24T11:29:18.058Z,29.77
2023-05-24T11:31:58.147Z,33.97
2023-05-24T11:34:27.085Z,30.85
2023-05-24T11:36:55.353Z,34.50
2023-05-24T11:39:23.509Z,28.33
2023-05-24T11:41:50.304Z,27.85
2023-05-24T11:44:19.486Z,26.02
2023-05-24T11:46:46.263Z,35.97
2023-05-24T11:49:16.776Z,30.10
2023-05-24T11:51:43.721Z,31.08
2023-05-24T11:54:10.281Z,30.65
2023-05-24T11:56:36.902Z,27.83
2023-05-24T11:59:15.862Z,29.00
2023-05-24T12:01:42.571Z,29.40
2023-05-24T12:04:10.250Z,33.28
2023-05-24T12:06:39.493Z,34.63
2023-05-24T12:09:08.624Z,28.30
2023-05-24T12:11:39.736Z,33.83
2023-05-24T12:14:07.328Z,39.60
2023-05-24T12:16:35.862Z,31.08
2023-05-24T12:19:09.360Z,34.75
2023-05-24T12:21:43.946Z,36.17
2023-05-24T12:24:19.387Z,33.25
2023-05-24T12:26:48.831Z,26.20
2023-05-24T12:29:16.462Z,32.80
2023-05-24T12:31:44.581Z,30.13
2023-05-24T12:34:18.889Z,34.47
2023-05-24T12:36:46.337Z,33.28
2023-05-24T12:39:19.571Z,29.73
2023-05-24T12:41:50.909Z,27.85
2023-05-24T12:44:17.404Z,30.75
2023-05-24T12:46:44.179Z,29.38
2023-05-24T12:49:10.757Z,26.52
2023-05-24T12:51:37.404Z,25.95
2023-05-24T12:54:05.271Z,27.35
2023-05-24T12:56:31.741Z,24.58
2023-05-24T12:58:58.450Z,25.40
2023-05-24T13:01:25.614Z,26.77
2023-05-24T13:03:52.204Z,22.98
2023-05-24T13:06:18.828Z,23.70
2023-05-24T13:08:45.367Z,24.35
2023-05-24T13:11:12.570Z,22.17
2023-05-24T13:13:39.102Z,26.65
2023-05-24T13:16:07.462Z,23.02
2023-05-24T13:18:34.056Z,23.33
2023-05-24T13:21:00.755Z,19.55
2023-05-24T13:23:27.882Z,25.30
2023-05-24T13:25:54.559Z,22.15
2023-05-24T13:28:22.172Z,24.45
2023-05-24T13:30:48.790Z,21.13
2023-05-24T13:33:15.807Z,23.92
2023-05-24T13:35:42.633Z,24.98
2023-05-24T13:38:09.657Z,27.75
2023-05-24T13:40:37.411Z,32.97
2023-05-24T13:43:04.805Z,37.90
2023-05-24T13:45:33.209Z,44.67
2023-05-24T13:48:04.076Z,33.78
2023-05-24T13:50:34.920Z,28.85
2023-05-24T13:53:04.769Z,38.80
2023-05-24T13:55:34.145Z,39.58
2023-05-24T13:58:05.100Z,39.53
2023-05-24T14:00:33.402Z,43.80
2023-05-24T14:02:59.965Z,40.53
2023-05-24T14:05:27.828Z,36.75
2023-05-24T14:07:56.663Z,45.28
2023-05-24T14:10:23.651Z,41.50
2023-05-24T14:12:59.993Z,30.50
2023-05-24T14:15:37.178Z,36.60
2023-05-24T14:18:08.085Z,41.30
2023-05-24T14:20:37.819Z,35.45
2023-05-24T14:23:04.928Z,45.08
2023-05-24T14:25:32.064Z,36.58
2023-05-24T14:27:59.729Z,41.10
2023-05-24T14:30:26.667Z,32.03
2023-05-24T14:32:53.212Z,38.08
2023-05-24T14:35:20.147Z,43.25
2023-05-24T14:37:46.770Z,41.45
2023-05-24T14:40:13.908Z,41.72
2023-05-24T14:42:41.303Z,36.50
2023-05-24T14:45:08.700Z,35.22
2023-05-24T14:47:35.645Z,33.42
2023-05-24T14:50:02.462Z,34.28
2023-05-24T14:52:29.000Z,34.17
2023-05-24T14:54:55.532Z,37.90
2023-05-24T14:57:22.485Z,38.13
2023-05-24T14:59:49.009Z,34.50
2023-05-24T15:02:15.658Z,30.55
2023-05-24T15:04:45.061Z,40.47
2023-05-24T15:07:11.569Z,44.92
2023-05-24T15:09:38.232Z,40.88
2023-05-24T15:12:05.929Z,31.90
2023-05-24T15:14:32.433Z,35.30
2023-05-24T15:16:59.014Z,31.13
2023-05-24T15:19:25.944Z,34.25
2023-05-24T15:21:52.394Z,32.00
2023-05-24T15:24:19.001Z,31.70
2023-05-24T15:26:45.518Z,35.75
2023-05-24T15:29:12.008Z,36.85
2023-05-24T15:31:38.567Z,39.50
2023-05-24T15:34:05.834Z,38.30
2023-05-24T15:36:32.574Z,33.78
2023-05-24T15:39:01.598Z,38.17
2023-05-24T15:41:28.333Z,32.70
2023-05-24T15:43:54.930Z,35.15
2023-05-24T15:46:22.016Z,45.95
2023-05-24T15:48:48.819Z,39.83
2023-05-24T15:53:44.843Z,39.97
2023-05-24T15:56:11.823Z,36.60
2023-05-24T15:58:38.340Z,39.78
2023-05-24T16:01:04.889Z,44.47
2023-05-24T16:03:31.580Z,33.88
2023-05-24T16:06:01.682Z,36.28
2023-05-24T16:10:55.594Z,42.60
2023-05-24T16:13:22.146Z,31.20
2023-05-24T16:15:51.602Z,37.95
2023-05-24T16:18:22.305Z,40.38
2023-05-24T16:20:50.070Z,41.28
2023-05-24T16:23:17.316Z,37.78
2023-05-24T16:25:46.090Z,40.60
2023-05-24T16:28:12.724Z,39.80
2023-05-24T16:30:39.698Z,38.80
2023-05-24T16:33:06.411Z,40.20
2023-05-24T16:35:33.742Z,32.97
2023-05-24T16:38:00.299Z,38.63
2023-05-24T16:40:28.379Z,43.33
2023-05-24T16:42:55.225Z,36.45
2023-05-24T16:45:21.750Z,37.45
2023-05-24T16:47:48.277Z,35.55
2023-05-24T16:50:15.182Z,37.13
2023-05-24T16:52:42.933Z,33.33
2023-05-24T16:55:10.721Z,37.97
2023-05-24T16:57:37.403Z,42.80
2023-05-24T17:00:04.976Z,33.55
2023-05-24T17:02:31.525Z,34.78
2023-05-24T17:04:58.046Z,37.17
2023-05-24T17:07:24.674Z,34.88
2023-05-24T17:09:51.767Z,34.60
2023-05-24T17:12:18.574Z,31.48
2023-05-24T17:14:45.120Z,28.00
2023-05-24T17:17:12.060Z,37.10
2023-05-24T17:19:38.605Z,33.70
2023-05-24T17:22:06.516Z,34.75
2023-05-24T17:24:32.983Z,36.38
2023-05-24T17:26:59.503Z,31.50
2023-05-24T17:29:26.722Z,31.35
2023-05-24T17:31:53.249Z,38.78
2023-05-24T17:34:19.745Z,37.88
2023-05-24T17:36:46.198Z,33.72
2023-05-24T17:39:12.798Z,33.45
2023-05-24T17:41:39.308Z,31.10
2023-05-24T17:44:06.098Z,25.30
2023-05-24T17:46:35.748Z,33.70
2023-05-24T17:49:02.900Z,25.83
2023-05-24T17:51:29.326Z,43.65
2023-05-24T17:53:56.106Z,26.20
2023-05-24T17:56:23.216Z,33.63
2023-05-24T17:58:50.547Z,31.25
2023-05-24T18:01:17.440Z,31.17
2023-05-24T18:03:44.027Z,32.35
2023-05-24T18:06:11.003Z,35.65
2023-05-24T18:08:43.022Z,36.00
2023-05-24T18:11:11.592Z,36.35
2023-05-24T18:13:45.073Z,29.48
2023-05-24T18:16:12.336Z,28.13
2023-05-24T18:18:39.139Z,29.83
2023-05-24T18:21:06.423Z,24.17
2023-05-24T18:23:37.188Z,30.33
2023-05-24T18:26:06.842Z,37.20
2023-05-24T18:28:34.529Z,26.33
2023-05-24T18:31:00.955Z,21.50
2023-05-24T18:33:27.460Z,23.15
2023-05-24T18:35:54.025Z,29.38
2023-05-24T18:38:20.569Z,28.83
2023-05-24T18:40:47.018Z,28.75
2023-05-24T18:43:13.726Z,31.98
2023-05-24T18:45:40.416Z,33.15
2023-05-24T18:48:07.938Z,32.50
2023-05-24T18:50:34.823Z,28.30
2023-05-24T18:53:01.376Z,34.45
2023-05-24T18:55:28.300Z,31.73
2023-05-24T18:57:54.913Z,30.77
2023-05-24T19:00:24.527Z,26.75
2023-05-24T19:02:51.522Z,22.50
2023-05-24T19:05:19.565Z,28.83
2023-05-24T19:07:46.050Z,28.55
2023-05-24T19:10:13.791Z,31.20
2023-05-24T19:12:40.347Z,32.70
2023-05-24T19:15:07.479Z,29.95
2023-05-24T19:17:33.955Z,42.83
2023-05-24T19:20:01.974Z,44.28
2023-05-24T19:22:31.080Z,41.08
2023-05-24T19:24:57.860Z,38.80
2023-05-24T19:27:24.613Z,32.42
2023-05-24T19:29:51.203Z,28.77
2023-05-24T19:32:18.368Z,29.20
2023-05-24T19:34:45.106Z,28.45
2023-05-24T19:37:11.679Z,35.08
2023-05-24T19:39:38.164Z,34.25
2023-05-24T19:42:04.921Z,29.95
2023-05-24T19:44:31.480Z,36.60
2023-05-24T19:46:58.123Z,34.78
2023-05-24T19:49:24.662Z,27.08
2023-05-24T19:51:51.625Z,34.38
2023-05-24T19:54:18.333Z,35.63
2023-05-24T19:56:46.144Z,31.48
2023-05-24T19:59:12.616Z,30.88
2023-05-24T20:01:39.116Z,25.17
2023-05-24T20:04:05.762Z,35.17
2023-05-24T20:06:33.085Z,32.80
2023-05-24T20:09:00.294Z,32.72
2023-05-24T20:11:28.108Z,45.28
2023-05-24T20:13:55.835Z,31.83
2023-05-24T20:16:23.123Z,35.85
2023-05-24T20:18:49.828Z,34.00
2023-05-24T20:21:18.289Z,35.35
2023-05-24T20:23:44.925Z,32.35
2023-05-24T20:26:11.529Z,31.80
2023-05-24T20:28:38.016Z,32.70
2023-05-24T20:31:04.559Z,39.58
2023-05-24T20:33:31.026Z,31.00
2023-05-24T20:35:58.259Z,30.77
2023-05-24T20:38:24.894Z,32.85
2023-05-24T20:40:51.458Z,35.30
2023-05-24T20:43:17.998Z,36.47
2023-05-24T20:45:44.787Z,38.65
2023-05-24T20:48:11.648Z,36.00
2023-05-24T20:50:38.159Z,33.42
2023-05-24T20:53:04.708Z,28.63
2023-05-24T20:55:31.607Z,31.55
2023-05-24T20:57:58.181Z,36.40
2023-05-24T21:00:24.687Z,23.02
2023-05-24T21:02:51.382Z,33.30
2023-05-24T21:05:18.006Z,31.50
2023-05-24T21:07:44.489Z,28.40
2023-05-24T21:10:21.445Z,36.35
2023-05-24T21:12:48.362Z,30.40
2023-05-24T21:15:15.006Z,34.40
2023-05-24T21:17:41.596Z,28.52
2023-05-24T21:20:08.487Z,35.67
2023-05-24T21:22:34.962Z,29.33
2023-05-24T21:25:01.450Z,28.73
2023-05-24T21:27:28.125Z,30.83
2023-05-24T21:29:54.611Z,25.02
2023-05-24T21:32:21.149Z,33.30
2023-05-24T21:34:47.662Z,35.13
2023-05-24T21:37:14.206Z,25.95
2023-05-24T21:39:43.586Z,28.90
2023-05-24T21:42:10.056Z,26.20
2023-05-24T21:44:36.816Z,32.45
2023-05-24T21:47:03.411Z,23.60
2023-05-24T21:49:29.869Z,32.05
2023-05-24T21:51:56.384Z,38.53
2023-05-24T21:54:22.848Z,27.45
2023-05-24T21:56:49.427Z,27.77
2023-05-24T21:59:15.919Z,28.50
2023-05-24T22:01:42.553Z,29.02
2023-05-24T22:04:09.606Z,41.78
2023-05-24T22:06:36.432Z,31.65
2023-05-24T22:09:03.119Z,34.40
2023-05-24T22:11:29.610Z,30.35
2023-05-24T22:13:56.602Z,24.45
2023-05-24T22:16:24.071Z,29.88
2023-05-24T22:18:55.703Z,23.52
2023-05-24T22:21:22.696Z,31.58
2023-05-24T22:23:50.687Z,30.73
2023-05-24T22:26:17.270Z,31.08
2023-05-24T22:28:55.520Z,29.80
2023-05-24T22:31:23.832Z,33.05
2023-05-24T22:33:50.517Z,31.55
2023-05-24T22:36:17.000Z,34.55
2023-05-24T22:38:44.102Z,23.25
2023-05-24T22:41:10.943Z,20.42
2023-05-24T22:43:37.403Z,27.85
2023-05-24T22:46:03.962Z,32.25
2023-05-24T22:48:33.758Z,31.85
2023-05-24T22:51:00.741Z,29.20
2023-05-24T22:53:27.210Z,25.90
2023-05-24T22:55:53.675Z,29.73
2023-05-24T22:58:23.286Z,26.23
2023-05-24T23:00:50.804Z,27.05
2023-05-24T23:03:18.118Z,27.65
2023-05-24T23:05:45.626Z,33.38
2023-05-24T23:08:15.386Z,29.15
2023-05-24T23:10:45.579Z,30.88
2023-05-24T23:15:39.953Z,24.90
2023-05-24T23:18:07.220Z,30.02
2023-05-24T23:20:40.395Z,26.05
2023-05-24T23:23:07.773Z,26.80
2023-05-24T23:25:35.230Z,27.70
2023-05-24T23:28:01.768Z,24.80
2023-05-24T23:30:28.684Z,26.42
2023-05-24T23:32:55.302Z,30.10
2023-05-24T23:35:22.168Z,29.88
2023-05-24T23:37:48.772Z,32.95
2023-05-24T23:40:15.406Z,26.30
2023-05-24T23:42:41.933Z,27.55
2023-05-24T23:45:08.674Z,33.10
2023-05-24T23:47:35.164Z,24.65
2023-05-24T23:50:01.741Z,31.98
2023-05-24T23:52:28.286Z,29.50
2023-05-24T23:54:54.725Z,29.15
2023-05-24T23:57:21.684Z,28.73
2023-05-24T23:59:48.163Z,29.83
